createdAt,value
2018-11-23T12:05:05.726Z,100528.00
2018-11-23T12:07:33.257Z,100527.00
2018-11-23T12:10:00.766Z,100525.00
2018-11-23T12:12:28.308Z,100529.00
2018-11-23T12:14:55.843Z,100517.00
2018-11-23T12:17:23.593Z,100520.00
2018-11-23T12:19:51.125Z,100514.00
2018-11-23T12:22:18.654Z,100523.00
2018-11-23T12:24:46.165Z,100527.00
2018-11-23T12:27:13.687Z,100519.00
2018-11-23T12:29:41.202Z,100512.00
2018-11-23T12:32:08.737Z,100513.00
2018-11-23T12:34:36.240Z,100514.00
2018-11-23T12:37:04.177Z,100510.00
2018-11-23T12:39:31.713Z,100507.00
2018-11-23T12:41:59.270Z,100498.00
2018-11-23T12:44:26.799Z,100502.00
2018-11-23T12:46:54.392Z,100499.00
2018-11-23T12:49:21.953Z,100494.00
2018-11-23T12:51:49.525Z,100502.00
2018-11-23T12:54:17.081Z,100501.00
2018-11-23T12:56:44.633Z,100484.00
2018-11-23T12:59:12.205Z,100478.00
2018-11-23T13:01:39.786Z,100474.00
2018-11-23T13:04:07.349Z,100476.00
2018-11-23T13:06:34.946Z,100471.00
2018-11-23T13:09:02.611Z,100470.00
2018-11-23T13:11:37.110Z,100467.00
2018-11-23T13:14:05.745Z,100457.00
2018-11-23T13:16:50.453Z,100466.00
2018-11-23T13:19:18.032Z,100466.00
2018-11-23T13:21:45.749Z,100463.00
2018-11-23T13:24:13.331Z,100464.00
2018-11-23T13:26:40.895Z,100473.00
2018-11-23T13:29:15.991Z,100470.00
2018-11-23T13:31:36.109Z,100471.00
2018-11-23T13:34:03.718Z,100463.00
2018-11-23T13:36:31.300Z,100476.00
2018-11-23T13:38:58.862Z,100466.00
2018-11-23T13:41:26.434Z,100462.00
2018-11-23T13:43:54.038Z,100461.00
2018-11-23T13:46:21.605Z,100463.00
2018-11-23T13:48:49.150Z,100465.00
2018-11-23T13:51:16.723Z,100454.00
2018-11-23T13:53:44.425Z,100466.00
2018-11-23T13:56:11.985Z,100460.00
2018-11-23T13:58:39.553Z,100464.00
2018-11-23T14:01:07.113Z,100465.00
2018-11-23T14:03:34.680Z,100458.00
2018-11-23T14:06:02.263Z,100458.00
2018-11-23T14:08:29.821Z,100449.00
2018-11-23T14:10:57.363Z,100454.00
2018-11-23T14:13:24.935Z,100468.00
2018-11-23T14:15:52.496Z,100452.00
2018-11-23T14:18:20.049Z,100453.00
2018-11-23T14:20:47.603Z,100449.00
2018-11-23T14:23:15.146Z,100447.00
2018-11-23T14:25:42.688Z,100440.00
2018-11-23T14:28:10.246Z,100447.00
2018-11-23T14:30:37.798Z,100444.00
2018-11-23T14:33:05.359Z,100444.00
2018-11-23T14:35:33.765Z,100431.00
2018-11-23T14:38:01.744Z,100419.00
2018-11-23T14:40:29.285Z,100424.00
2018-11-23T14:42:57.175Z,100411.00
2018-11-23T14:45:34.817Z,100419.00
2018-11-23T14:48:05.651Z,100420.00
2018-11-23T14:50:34.694Z,100418.00
2018-11-23T14:53:02.377Z,100426.00
2018-11-23T14:55:30.311Z,100425.00
2018-11-23T14:57:58.182Z,100412.00
2018-11-23T15:00:34.552Z,100408.00
2018-11-23T15:03:03.042Z,100402.00
2018-11-23T15:05:30.657Z,100402.00
2018-11-23T15:07:58.245Z,100419.00
2018-11-23T15:10:27.248Z,100412.00
2018-11-23T15:12:56.155Z,100426.00
2018-11-23T15:15:26.208Z,100421.00
2018-11-23T15:17:54.333Z,100423.00
2018-11-23T15:20:28.425Z,100417.00
2018-11-23T15:23:00.471Z,100411.00
2018-11-23T15:25:28.054Z,100406.00
2018-11-23T15:27:55.665Z,100409.00
2018-11-23T15:30:24.931Z,100408.00
2018-11-23T15:32:52.692Z,100426.00
2018-11-23T15:35:20.307Z,100420.00
2018-11-23T15:37:47.915Z,100418.00
2018-11-23T15:40:18.887Z,100429.00
2018-11-23T15:42:47.265Z,100427.00
2018-11-23T15:45:16.349Z,100417.00
2018-11-23T15:47:43.947Z,100422.00
2018-11-23T15:50:16.111Z,100417.00
2018-11-23T15:52:44.362Z,100418.00
2018-11-23T15:55:15.534Z,100420.00
2018-11-23T15:57:43.766Z,100412.00
2018-11-23T16:00:17.573Z,100415.00
2018-11-23T16:02:45.867Z,100408.00
2018-11-23T16:05:13.740Z,100407.00
2018-11-23T16:07:41.615Z,100415.00
2018-11-23T16:10:18.305Z,100416.00
2018-11-23T16:12:47.333Z,100409.00
2018-11-23T16:15:15.305Z,100420.00
2018-11-23T16:17:42.873Z,100422.00
2018-11-23T16:20:14.022Z,100418.00
2018-11-23T16:22:42.503Z,100427.00
2018-11-23T16:25:10.869Z,100426.00
2018-11-23T16:27:39.075Z,100418.00
2018-11-23T16:30:13.558Z,100405.00
2018-11-23T16:32:41.341Z,100413.00
2018-11-23T16:35:08.894Z,100393.00
2018-11-23T16:37:36.445Z,100400.00
2018-11-23T16:40:06.700Z,100398.00
2018-11-23T16:42:34.270Z,100396.00
2018-11-23T16:45:01.826Z,100381.00
2018-11-23T16:47:32.703Z,100389.00
2018-11-23T16:50:00.245Z,100388.00
2018-11-23T16:52:27.805Z,100384.00
2018-11-23T16:54:55.345Z,100385.00
2018-11-23T16:57:22.899Z,100384.00
2018-11-23T16:59:50.471Z,100383.00
2018-11-23T17:02:18.044Z,100382.00
2018-11-23T17:04:45.618Z,100370.00
2018-11-23T17:07:13.224Z,100367.00
2018-11-23T17:09:40.783Z,100357.00
2018-11-23T17:12:08.401Z,100353.00
2018-11-23T17:14:35.950Z,100359.00
2018-11-23T17:17:03.529Z,100354.00
2018-11-23T17:19:46.291Z,100362.00
2018-11-23T17:22:13.834Z,100352.00
2018-11-23T17:24:41.373Z,100362.00
2018-11-23T17:27:08.915Z,100354.00
2018-11-23T17:29:36.472Z,100359.00
2018-11-23T17:32:04.030Z,100370.00
2018-11-23T17:34:31.589Z,100377.00
2018-11-23T17:36:59.138Z,100373.00
2018-11-23T17:39:26.701Z,100371.00
2018-11-23T17:41:54.265Z,100378.00
2018-11-23T17:44:21.796Z,100374.00
2018-11-23T17:46:49.377Z,100369.00
2018-11-23T17:49:16.943Z,100370.00
2018-11-23T17:51:44.501Z,100367.00
2018-11-23T17:54:12.103Z,100366.00
2018-11-23T17:56:39.674Z,100358.00
2018-11-23T17:59:07.266Z,100367.00
2018-11-23T18:01:34.862Z,100362.00
2018-11-23T18:04:02.466Z,100375.00
2018-11-23T18:06:30.062Z,100373.00
2018-11-23T18:08:57.881Z,100363.00
2018-11-23T18:11:25.508Z,100369.00
2018-11-23T18:13:53.106Z,100365.00
2018-11-23T18:16:20.697Z,100356.00
2018-11-23T18:18:48.281Z,100356.00
2018-11-23T18:21:15.865Z,100346.00
2018-11-23T18:23:43.468Z,100350.00
2018-11-23T18:26:11.054Z,100339.00
2018-11-23T18:28:38.640Z,100331.00
2018-11-23T18:31:06.239Z,100330.00
2018-11-23T18:33:33.824Z,100331.00
2018-11-23T18:36:01.421Z,100322.00
2018-11-23T18:38:28.994Z,100321.00
2018-11-23T18:40:56.566Z,100310.00
2018-11-23T18:43:24.161Z,100312.00
2018-11-23T18:45:51.723Z,100308.00
2018-11-23T18:48:19.329Z,100310.00
2018-11-23T18:50:46.922Z,100291.00
2018-11-23T18:53:14.502Z,100282.00
2018-11-23T18:55:42.100Z,100294.00
2018-11-23T18:58:09.698Z,100283.00
2018-11-23T19:00:37.290Z,100274.00
2018-11-23T19:03:05.401Z,100274.00
2018-11-23T19:05:32.979Z,100273.00
2018-11-23T19:08:00.563Z,100276.00
2018-11-23T19:10:28.169Z,100278.00
2018-11-23T19:12:55.765Z,100279.00
2018-11-23T19:15:25.581Z,100277.00
2018-11-23T19:17:51.003Z,100275.00
2018-11-23T19:20:21.241Z,100283.00
2018-11-23T19:22:51.453Z,100275.00
2018-11-23T19:25:19.028Z,100264.00
2018-11-23T19:27:46.611Z,100267.00
2018-11-23T19:30:16.920Z,100262.00
2018-11-23T19:32:44.534Z,100258.00
2018-11-23T19:35:12.157Z,100243.00
2018-11-23T19:37:39.711Z,100245.00
2018-11-23T19:40:11.240Z,100238.00
2018-11-23T19:43:00.253Z,100237.00
2018-11-23T19:45:27.843Z,100229.00
2018-11-23T19:48:09.022Z,100233.00
2018-11-23T19:50:36.600Z,100228.00
2018-11-23T19:53:04.189Z,100223.00
2018-11-23T19:55:38.172Z,100230.00
2018-11-23T19:58:05.763Z,100230.00
2018-11-23T20:00:33.373Z,100221.00
2018-11-23T20:03:00.952Z,100221.00
2018-11-23T20:05:28.545Z,100217.00
2018-11-23T20:07:56.699Z,100217.00
2018-11-23T20:10:24.965Z,100215.00
2018-11-23T20:12:54.721Z,100213.00
2018-11-23T20:15:22.325Z,100220.00
2018-11-23T20:17:49.892Z,100207.00
2018-11-23T20:20:17.757Z,100206.00
2018-11-23T20:22:46.733Z,100214.00
2018-11-23T20:25:15.771Z,100205.00
2018-11-23T20:27:44.131Z,100201.00
2018-11-23T20:30:16.019Z,100202.00
2018-11-23T20:32:43.666Z,100198.00
2018-11-23T20:35:13.698Z,100195.00
2018-11-23T20:37:41.276Z,100202.00
2018-11-23T20:40:14.665Z,100199.00
2018-11-23T20:42:42.229Z,100191.00
2018-11-23T20:45:10.959Z,100194.00
2018-11-23T20:47:38.602Z,100187.00
2018-11-23T20:50:09.166Z,100184.00
2018-11-23T20:52:36.731Z,100191.00
2018-11-23T20:55:06.905Z,100179.00
2018-11-23T20:57:34.505Z,100172.00
2018-11-23T21:00:02.632Z,100164.00
2018-11-23T21:02:30.253Z,100157.00
2018-11-23T21:04:57.827Z,100154.00
2018-11-23T21:07:25.407Z,100151.00
2018-11-23T21:09:52.997Z,100147.00
2018-11-23T21:12:20.587Z,100143.00
2018-11-23T21:14:48.176Z,100146.00
2018-11-23T21:17:15.798Z,100141.00
2018-11-23T21:22:51.069Z,100130.00
2018-11-23T21:25:18.637Z,100121.00
2018-11-23T21:27:46.211Z,100119.00
2018-11-23T21:30:15.599Z,100113.00
2018-11-23T21:32:43.226Z,100112.00
2018-11-23T21:35:11.624Z,100110.00
2018-11-23T21:37:39.229Z,100101.00
2018-11-23T21:40:11.366Z,100109.00
2018-11-23T21:42:38.989Z,100106.00
2018-11-23T21:45:27.507Z,100106.00
2018-11-23T21:47:55.070Z,100108.00
2018-11-23T21:50:25.544Z,100098.00
2018-11-23T21:52:50.247Z,100104.00
2018-11-23T21:55:21.291Z,100106.00
2018-11-23T21:57:49.357Z,100110.00
2018-11-23T22:00:16.945Z,100122.00
2018-11-23T22:02:44.520Z,100116.00
2018-11-23T22:05:12.170Z,100109.00
2018-11-23T22:10:49.776Z,100114.00
2018-11-23T22:13:17.445Z,100115.00
2018-11-23T22:15:45.155Z,100113.00
2018-11-23T22:18:12.742Z,100100.00
2018-11-23T22:20:40.345Z,100099.00
2018-11-23T22:23:07.905Z,100102.00
2018-11-23T22:25:35.493Z,100106.00
2018-11-23T22:28:03.061Z,100103.00
2018-11-23T22:30:30.897Z,100095.00
2018-11-23T22:33:27.098Z,100079.00
2018-11-23T22:35:54.673Z,100075.00
2018-11-23T22:41:24.299Z,100065.00
2018-11-23T22:43:51.870Z,100057.00
2018-11-23T22:46:19.455Z,100062.00
2018-11-23T22:48:47.081Z,100059.00
2018-11-23T22:51:14.663Z,100055.00
2018-11-23T22:53:42.225Z,100053.00
2018-11-23T22:56:09.815Z,100056.00
2018-11-23T22:58:37.382Z,100054.00
2018-11-23T23:01:31.905Z,100057.00
2018-11-23T23:03:59.474Z,100058.00
2018-11-23T23:06:27.045Z,100058.00
2018-11-23T23:08:54.617Z,100054.00
2018-11-23T23:11:22.196Z,100051.00
2018-11-23T23:13:49.756Z,100043.00
2018-11-23T23:16:17.326Z,100041.00
2018-11-23T23:18:44.885Z,100036.00
2018-11-23T23:21:12.470Z,100028.00
2018-11-23T23:23:40.034Z,100019.00
2018-11-23T23:26:07.629Z,100010.00
2018-11-23T23:28:35.226Z,100016.00
2018-11-23T23:31:02.807Z,100011.00
2018-11-23T23:33:30.385Z,100008.00
2018-11-23T23:35:57.971Z,100002.00
2018-11-23T23:38:25.534Z,100003.00
2018-11-23T23:40:53.101Z,99999.00
2018-11-23T23:43:20.658Z,99998.00
2018-11-23T23:45:55.459Z,99988.00
2018-11-23T23:48:23.032Z,99989.00
2018-11-23T23:50:50.593Z,99978.00
2018-11-23T23:53:18.142Z,99984.00
2018-11-23T23:55:45.705Z,99986.00
2018-11-23T23:58:13.245Z,99968.00
